Terminal Aerodrome Forecast
Issued by NWS Blacksburg, VA

Current Version | Previous Version | Graphics & Text | Print | Product List | Glossary On
Versions: 1 2 3 4 5 6 7 8 9 10 11 12 13 14 15 16 17 18 19 20 21 22 23 24 25 26 27 28 29 30 31 32 33
000
FTUS41 KRNK 242144 AAA
TAFBLF
TAF AMD
KBLF 242144Z 2422/2518 13006KT P6SM FEW013 BKN029
      TEMPO 2422/2424 SCT029
     FM250700 15004KT 5SM BR BKN016
     FM251400 13004KT P6SM FEW030=

USA.gov is the U.S. government's official web portal to all federal, state and local government web resources and services.